Terminal Aerodrome Forecast
Issued by NWS Jackson, KY

Home | Current Version | Previous Version | Text Only | Print | Product List | Glossary On
Versions: 1 2 3 4 5 6 7 8 9 10 11 12 13 14 15 16 17 18 19 20 21 22 23
000
FTUS43 KJKL 160900 AAA
TAFJKL
TAF AMD
KJKL 160939Z 1610/1706 21006KT P6SM -SHRA BKN035 OVC070
     FM161600 25010G15KT 4SM -DZ BR OVC025
     FM162200 25008KT 4SM -DZ BR OVC010=

USA.gov is the U.S. government's official web portal to all federal, state and local government web resources and services.